sensor_id;sensor_type;location;lat;lon;timestamp;temperature;humidity
5059;DHT22;2548;52.050;11.036;2022-09-01T00:01:46;12.60;99.90
5059;DHT22;2548;52.050;11.036;2022-09-01T00:04:16;12.50;99.90
5059;DHT22;2548;52.050;11.036;2022-09-01T00:06:47;12.40;99.90
5059;DHT22;2548;52.050;11.036;2022-09-01T00:09:17;12.40;99.90
5059;DHT22;2548;52.050;11.036;2022-09-01T00:11:48;12.40;99.90
5059;DHT22;2548;52.050;11.036;2022-09-01T00:14:16;12.40;99.90
5059;DHT22;2548;52.050;11.036;2022-09-01T00:16:44;12.30;99.90
5059;DHT22;2548;52.050;11.036;2022-09-01T00:19:11;12.20;99.90
5059;DHT22;2548;52.050;11.036;2022-09-01T00:21:41;12.20;99.90
5059;DHT22;2548;52.050;11.036;2022-09-01T00:24:11;12.20;99.90
5059;DHT22;2548;52.050;11.036;2022-09-01T00:26:39;12.20;99.90
5059;DHT22;2548;52.050;11.036;2022-09-01T00:29:07;12.20;99.90
5059;DHT22;2548;52.050;11.036;2022-09-01T00:31:34;12.30;99.90
5059;DHT22;2548;52.050;11.036;2022-09-01T00:34:02;12.20;99.90
5059;DHT22;2548;52.050;11.036;2022-09-01T00:36:30;12.20;99.90
5059;DHT22;2548;52.050;11.036;2022-09-01T00:38:57;12.20;99.90
5059;DHT22;2548;52.050;11.036;2022-09-01T00:41:28;12.10;99.90
5059;DHT22;2548;52.050;11.036;2022-09-01T00:43:58;12.10;99.90
5059;DHT22;2548;52.050;11.036;2022-09-01T00:46:28;12.10;99.90
5059;DHT22;2548;52.050;11.036;2022-09-01T00:49:01;12.00;99.90
5059;DHT22;2548;52.050;11.036;2022-09-01T00:51:30;12.00;99.90
5059;DHT22;2548;52.050;11.036;2022-09-01T00:54:00;12.00;99.90
5059;DHT22;2548;52.050;11.036;2022-09-01T00:56:31;12.00;99.90
5059;DHT22;2548;52.050;11.036;2022-09-01T00:59:00;11.90;99.90
5059;DHT22;2548;52.050;11.036;2022-09-01T01:01:28;11.90;99.90
5059;DHT22;2548;52.050;11.036;2022-09-01T01:03:55;11.90;99.90
5059;DHT22;2548;52.050;11.036;2022-09-01T01:06:27;11.90;99.90
5059;DHT22;2548;52.050;11.036;2022-09-01T01:08:56;11.90;99.90
5059;DHT22;2548;52.050;11.036;2022-09-01T01:11:26;11.70;99.90
5059;DHT22;2548;52.050;11.036;2022-09-01T01:13:58;11.60;99.90
5059;DHT22;2548;52.050;11.036;2022-09-01T01:16:36;11.60;99.90
5059;DHT22;2548;52.050;11.036;2022-09-01T01:19:06;11.60;99.90
5059;DHT22;2548;52.050;11.036;2022-09-01T01:21:57;11.50;99.90
5059;DHT22;2548;52.050;11.036;2022-09-01T01:24:44;11.40;99.90
5059;DHT22;2548;52.050;11.036;2022-09-01T01:27:13;11.30;99.90
5059;DHT22;2548;52.050;11.036;2022-09-01T01:29:48;11.20;99.90
5059;DHT22;2548;52.050;11.036;2022-09-01T01:32:19;11.20;99.90
5059;DHT22;2548;52.050;11.036;2022-09-01T01:34:47;11.20;99.90
5059;DHT22;2548;52.050;11.036;2022-09-01T01:37:14;11.20;99.90
5059;DHT22;2548;52.050;11.036;2022-09-01T01:39:43;11.20;99.90
5059;DHT22;2548;52.050;11.036;2022-09-01T01:42:13;11.20;99.90
5059;DHT22;2548;52.050;11.036;2022-09-01T01:44:42;11.20;99.90
5059;DHT22;2548;52.050;11.036;2022-09-01T01:47:11;11.20;99.90
5059;DHT22;2548;52.050;11.036;2022-09-01T01:49:40;11.10;99.90
5059;DHT22;2548;52.050;11.036;2022-09-01T01:52:11;11.10;99.90
5059;DHT22;2548;52.050;11.036;2022-09-01T01:54:42;11.10;99.90
5059;DHT22;2548;52.050;11.036;2022-09-01T01:57:13;11.10;99.90
5059;DHT22;2548;52.050;11.036;2022-09-01T01:59:43;11.10;99.90
5059;DHT22;2548;52.050;11.036;2022-09-01T02:02:11;11.10;99.90
5059;DHT22;2548;52.050;11.036;2022-09-01T02:04:39;11.10;99.90
5059;DHT22;2548;52.050;11.036;2022-09-01T02:07:11;11.00;99.90
5059;DHT22;2548;52.050;11.036;2022-09-01T02:09:40;11.00;99.90
5059;DHT22;2548;52.050;11.036;2022-09-01T02:12:12;10.90;99.90
5059;DHT22;2548;52.050;11.036;2022-09-01T02:14:43;10.80;99.90
5059;DHT22;2548;52.050;11.036;2022-09-01T02:17:11;10.80;99.90
5059;DHT22;2548;52.050;11.036;2022-09-01T02:19:38;10.80;99.90
5059;DHT22;2548;52.050;11.036;2022-09-01T02:22:08;10.80;99.90
5059;DHT22;2548;52.050;11.036;2022-09-01T02:24:37;10.90;99.90
5059;DHT22;2548;52.050;11.036;2022-09-01T02:27:12;10.90;99.90
5059;DHT22;2548;52.050;11.036;2022-09-01T02:29:40;10.90;99.90
5059;DHT22;2548;52.050;11.036;2022-09-01T02:32:09;10.90;99.90
5059;DHT22;2548;52.050;11.036;2022-09-01T02:34:36;10.90;99.90
5059;DHT22;2548;52.050;11.036;2022-09-01T02:37:05;10.80;99.90
5059;DHT22;2548;52.050;11.036;2022-09-01T02:39:33;10.70;99.90
5059;DHT22;2548;52.050;11.036;2022-09-01T02:42:00;10.50;99.90
5059;DHT22;2548;52.050;11.036;2022-09-01T02:44:30;10.40;99.90
5059;DHT22;2548;52.050;11.036;2022-09-01T02:46:59;10.30;99.90
5059;DHT22;2548;52.050;11.036;2022-09-01T02:49:27;10.30;99.90
5059;DHT22;2548;52.050;11.036;2022-09-01T02:51:56;10.30;99.90
5059;DHT22;2548;52.050;11.036;2022-09-01T02:54:25;10.30;99.90
5059;DHT22;2548;52.050;11.036;2022-09-01T02:56:53;10.30;99.90
5059;DHT22;2548;52.050;11.036;2022-09-01T02:59:25;10.40;99.90
5059;DHT22;2548;52.050;11.036;2022-09-01T03:01:55;10.40;99.90
5059;DHT22;2548;52.050;11.036;2022-09-01T03:04:23;10.40;99.90
5059;DHT22;2548;52.050;11.036;2022-09-01T03:06:52;10.40;99.90
5059;DHT22;2548;52.050;11.036;2022-09-01T03:09:20;10.40;99.90
5059;DHT22;2548;52.050;11.036;2022-09-01T03:11:49;10.40;99.90
5059;DHT22;2548;52.050;11.036;2022-09-01T03:14:17;10.30;99.90
5059;DHT22;2548;52.050;11.036;2022-09-01T03:16:44;10.40;99.90
5059;DHT22;2548;52.050;11.036;2022-09-01T03:19:13;10.40;99.90
5059;DHT22;2548;52.050;11.036;2022-09-01T03:21:43;10.40;99.90
5059;DHT22;2548;52.050;11.036;2022-09-01T03:24:16;10.50;99.90
5059;DHT22;2548;52.050;11.036;2022-09-01T03:26:46;10.40;99.90
5059;DHT22;2548;52.050;11.036;2022-09-01T03:29:16;10.50;99.90
5059;DHT22;2548;52.050;11.036;2022-09-01T03:31:44;10.50;99.90
5059;DHT22;2548;52.050;11.036;2022-09-01T03:34:13;10.50;99.90
5059;DHT22;2548;52.050;11.036;2022-09-01T03:36:46;10.40;99.90
5059;DHT22;2548;52.050;11.036;2022-09-01T03:39:21;10.50;99.90
5059;DHT22;2548;52.050;11.036;2022-09-01T03:41:48;10.40;99.90
5059;DHT22;2548;52.050;11.036;2022-09-01T03:44:16;10.50;99.90
5059;DHT22;2548;52.050;11.036;2022-09-01T03:46:44;10.40;99.90
5059;DHT22;2548;52.050;11.036;2022-09-01T03:49:13;10.40;99.90
5059;DHT22;2548;52.050;11.036;2022-09-01T03:51:42;10.50;99.90
5059;DHT22;2548;52.050;11.036;2022-09-01T03:54:11;10.60;99.90
5059;DHT22;2548;52.050;11.036;2022-09-01T03:56:39;10.60;99.90
5059;DHT22;2548;52.050;11.036;2022-09-01T03:59:08;10.60;99.90
5059;DHT22;2548;52.050;11.036;2022-09-01T04:01:42;10.70;99.90
5059;DHT22;2548;52.050;11.036;2022-09-01T04:04:13;10.70;99.90
5059;DHT22;2548;52.050;11.036;2022-09-01T04:06:43;10.70;99.90
5059;DHT22;2548;52.050;11.036;2022-09-01T04:09:11;10.70;99.90
5059;DHT22;2548;52.050;11.036;2022-09-01T04:11:41;10.60;99.90
5059;DHT22;2548;52.050;11.036;2022-09-01T04:14:12;10.70;99.90
5059;DHT22;2548;52.050;11.036;2022-09-01T04:16:40;10.70;99.90
5059;DHT22;2548;52.050;11.036;2022-09-01T04:19:28;10.70;99.90
5059;DHT22;2548;52.050;11.036;2022-09-01T04:21:57;10.80;99.90
5059;DHT22;2548;52.050;11.036;2022-09-01T04:24:28;10.80;99.90
5059;DHT22;2548;52.050;11.036;2022-09-01T04:26:59;10.80;99.90
5059;DHT22;2548;52.050;11.036;2022-09-01T04:29:28;10.90;99.90
5059;DHT22;2548;52.050;11.036;2022-09-01T04:31:58;11.00;99.90
5059;DHT22;2548;52.050;11.036;2022-09-01T04:34:33;11.00;99.90
5059;DHT22;2548;52.050;11.036;2022-09-01T04:37:07;11.10;99.90
5059;DHT22;2548;52.050;11.036;2022-09-01T04:39:35;11.10;99.90
5059;DHT22;2548;52.050;11.036;2022-09-01T04:42:04;11.10;99.90
5059;DHT22;2548;52.050;11.036;2022-09-01T04:44:35;11.10;99.90
5059;DHT22;2548;52.050;11.036;2022-09-01T04:47:03;11.10;99.90
5059;DHT22;2548;52.050;11.036;2022-09-01T04:49:38;11.10;99.90
5059;DHT22;2548;52.050;11.036;2022-09-01T04:52:05;11.20;99.90
5059;DHT22;2548;52.050;11.036;2022-09-01T04:54:33;11.20;99.90
5059;DHT22;2548;52.050;11.036;2022-09-01T04:57:03;11.20;99.90
5059;DHT22;2548;52.050;11.036;2022-09-01T04:59:35;11.20;99.90
5059;DHT22;2548;52.050;11.036;2022-09-01T05:02:03;11.30;99.90
5059;DHT22;2548;52.050;11.036;2022-09-01T05:04:32;11.40;99.90
5059;DHT22;2548;52.050;11.036;2022-09-01T05:07:04;11.40;99.90
5059;DHT22;2548;52.050;11.036;2022-09-01T05:09:38;11.40;99.90
5059;DHT22;2548;52.050;11.036;2022-09-01T05:12:24;11.50;99.90
5059;DHT22;2548;52.050;11.036;2022-09-01T05:14:53;11.60;99.90
5059;DHT22;2548;52.050;11.036;2022-09-01T05:17:21;11.60;99.90
5059;DHT22;2548;52.050;11.036;2022-09-01T05:19:54;11.60;99.90
5059;DHT22;2548;52.050;11.036;2022-09-01T05:22:23;11.60;99.90
5059;DHT22;2548;52.050;11.036;2022-09-01T05:24:57;11.60;99.90
5059;DHT22;2548;52.050;11.036;2022-09-01T05:27:29;11.70;99.90
5059;DHT22;2548;52.050;11.036;2022-09-01T05:29:56;11.70;99.90
5059;DHT22;2548;52.050;11.036;2022-09-01T05:32:25;11.70;99.90
5059;DHT22;2548;52.050;11.036;2022-09-01T05:34:53;11.70;99.90
5059;DHT22;2548;52.050;11.036;2022-09-01T05:37:23;11.70;99.90
5059;DHT22;2548;52.050;11.036;2022-09-01T05:39:54;11.70;99.90
5059;DHT22;2548;52.050;11.036;2022-09-01T05:42:21;11.70;99.90
5059;DHT22;2548;52.050;11.036;2022-09-01T05:44:49;11.80;99.90
5059;DHT22;2548;52.050;11.036;2022-09-01T05:47:18;11.80;99.90
5059;DHT22;2548;52.050;11.036;2022-09-01T05:49:47;11.80;99.90
5059;DHT22;2548;52.050;11.036;2022-09-01T05:52:15;11.80;99.90
5059;DHT22;2548;52.050;11.036;2022-09-01T05:54:52;11.80;99.90
5059;DHT22;2548;52.050;11.036;2022-09-01T05:57:20;11.90;99.90
5059;DHT22;2548;52.050;11.036;2022-09-01T05:59:48;12.00;99.90
5059;DHT22;2548;52.050;11.036;2022-09-01T06:02:21;12.00;99.90
5059;DHT22;2548;52.050;11.036;2022-09-01T06:04:49;12.10;99.90
5059;DHT22;2548;52.050;11.036;2022-09-01T06:07:24;12.20;99.90
5059;DHT22;2548;52.050;11.036;2022-09-01T06:09:56;12.30;99.90
5059;DHT22;2548;52.050;11.036;2022-09-01T06:12:25;12.40;99.90
5059;DHT22;2548;52.050;11.036;2022-09-01T06:14:54;12.50;99.90
5059;DHT22;2548;52.050;11.036;2022-09-01T06:17:25;12.60;99.90
5059;DHT22;2548;52.050;11.036;2022-09-01T06:19:57;12.70;99.90
5059;DHT22;2548;52.050;11.036;2022-09-01T06:22:26;12.80;99.90
5059;DHT22;2548;52.050;11.036;2022-09-01T06:24:56;12.90;99.90
5059;DHT22;2548;52.050;11.036;2022-09-01T06:27:24;13.00;99.90
5059;DHT22;2548;52.050;11.036;2022-09-01T06:29:52;13.10;99.90
5059;DHT22;2548;52.050;11.036;2022-09-01T06:32:22;13.10;99.90
5059;DHT22;2548;52.050;11.036;2022-09-01T06:34:51;13.20;99.90
5059;DHT22;2548;52.050;11.036;2022-09-01T06:37:18;13.40;99.90
5059;DHT22;2548;52.050;11.036;2022-09-01T06:39:50;13.50;99.90
5059;DHT22;2548;52.050;11.036;2022-09-01T06:42:20;13.70;99.90
5059;DHT22;2548;52.050;11.036;2022-09-01T06:44:55;13.80;99.90
5059;DHT22;2548;52.050;11.036;2022-09-01T06:47:23;13.90;99.90
5059;DHT22;2548;52.050;11.036;2022-09-01T06:49:54;13.90;99.90
5059;DHT22;2548;52.050;11.036;2022-09-01T06:52:25;14.00;99.90
5059;DHT22;2548;52.050;11.036;2022-09-01T06:54:53;14.10;99.90
5059;DHT22;2548;52.050;11.036;2022-09-01T06:57:22;14.20;99.90
5059;DHT22;2548;52.050;11.036;2022-09-01T06:59:50;14.30;99.90
5059;DHT22;2548;52.050;11.036;2022-09-01T07:02:19;14.50;99.90
5059;DHT22;2548;52.050;11.036;2022-09-01T07:05:07;14.60;99.90
5059;DHT22;2548;52.050;11.036;2022-09-01T07:07:34;14.80;99.90
5059;DHT22;2548;52.050;11.036;2022-09-01T07:10:21;15.00;99.90
5059;DHT22;2548;52.050;11.036;2022-09-01T07:13:18;15.20;99.90
5059;DHT22;2548;52.050;11.036;2022-09-01T07:15:48;15.50;99.90
5059;DHT22;2548;52.050;11.036;2022-09-01T07:18:17;15.70;99.90
5059;DHT22;2548;52.050;11.036;2022-09-01T07:20:47;15.80;99.90
5059;DHT22;2548;52.050;11.036;2022-09-01T07:23:15;16.00;99.90
5059;DHT22;2548;52.050;11.036;2022-09-01T07:25:45;16.20;99.90
5059;DHT22;2548;52.050;11.036;2022-09-01T07:28:24;16.40;99.90
5059;DHT22;2548;52.050;11.036;2022-09-01T07:30:55;16.50;99.90
5059;DHT22;2548;52.050;11.036;2022-09-01T07:33:23;16.70;99.90
5059;DHT22;2548;52.050;11.036;2022-09-01T07:35:53;16.80;99.90
5059;DHT22;2548;52.050;11.036;2022-09-01T07:38:23;16.90;99.90
5059;DHT22;2548;52.050;11.036;2022-09-01T07:40:51;17.10;99.90
5059;DHT22;2548;52.050;11.036;2022-09-01T07:43:55;17.20;99.90
5059;DHT22;2548;52.050;11.036;2022-09-01T07:46:44;17.30;99.90
5059;DHT22;2548;52.050;11.036;2022-09-01T07:49:18;17.50;99.90
5059;DHT22;2548;52.050;11.036;2022-09-01T07:51:45;17.60;99.90
5059;DHT22;2548;52.050;11.036;2022-09-01T07:54:19;17.60;99.90
5059;DHT22;2548;52.050;11.036;2022-09-01T07:56:50;17.70;99.90
5059;DHT22;2548;52.050;11.036;2022-09-01T07:59:22;17.80;99.90
5059;DHT22;2548;52.050;11.036;2022-09-01T08:01:56;17.90;99.90
5059;DHT22;2548;52.050;11.036;2022-09-01T08:04:24;18.00;99.90
5059;DHT22;2548;52.050;11.036;2022-09-01T08:06:52;18.20;99.90
5059;DHT22;2548;52.050;11.036;2022-09-01T08:09:20;18.30;99.90
5059;DHT22;2548;52.050;11.036;2022-09-01T08:11:48;18.50;99.90
5059;DHT22;2548;52.050;11.036;2022-09-01T08:14:15;18.70;99.90
5059;DHT22;2548;52.050;11.036;2022-09-01T08:16:44;18.90;99.90
5059;DHT22;2548;52.050;11.036;2022-09-01T08:19:13;19.00;99.90
5059;DHT22;2548;52.050;11.036;2022-09-01T08:22:03;19.10;99.90
5059;DHT22;2548;52.050;11.036;2022-09-01T08:24:44;19.30;99.90
5059;DHT22;2548;52.050;11.036;2022-09-01T08:27:12;19.40;99.90
5059;DHT22;2548;52.050;11.036;2022-09-01T08:29:39;19.50;99.90
5059;DHT22;2548;52.050;11.036;2022-09-01T08:32:08;19.60;99.90
5059;DHT22;2548;52.050;11.036;2022-09-01T08:34:36;19.70;99.90
5059;DHT22;2548;52.050;11.036;2022-09-01T08:37:05;19.70;99.90
5059;DHT22;2548;52.050;11.036;2022-09-01T08:39:32;19.80;99.90
5059;DHT22;2548;52.050;11.036;2022-09-01T08:42:06;19.90;99.90
5059;DHT22;2548;52.050;11.036;2022-09-01T08:44:42;20.00;99.90
5059;DHT22;2548;52.050;11.036;2022-09-01T08:47:15;20.10;99.90
5059;DHT22;2548;52.050;11.036;2022-09-01T08:49:45;20.20;99.90
5059;DHT22;2548;52.050;11.036;2022-09-01T08:52:26;20.30;98.60
5059;DHT22;2548;52.050;11.036;2022-09-01T08:55:01;20.40;99.40
5059;DHT22;2548;52.050;11.036;2022-09-01T08:57:32;20.60;99.50
5059;DHT22;2548;52.050;11.036;2022-09-01T09:00:25;20.70;99.70
5059;DHT22;2548;52.050;11.036;2022-09-01T09:03:11;20.70;99.40
5059;DHT22;2548;52.050;11.036;2022-09-01T09:05:56;20.70;99.30
5059;DHT22;2548;52.050;11.036;2022-09-01T09:08:49;20.90;99.20
5059;DHT22;2548;52.050;11.036;2022-09-01T09:11:30;21.00;98.60
5059;DHT22;2548;52.050;11.036;2022-09-01T09:14:06;21.10;97.70
5059;DHT22;2548;52.050;11.036;2022-09-01T09:16:39;21.00;97.60
5059;DHT22;2548;52.050;11.036;2022-09-01T09:19:20;21.00;97.80
5059;DHT22;2548;52.050;11.036;2022-09-01T09:21:50;21.20;97.80
5059;DHT22;2548;52.050;11.036;2022-09-01T09:24:25;21.40;96.70
5059;DHT22;2548;52.050;11.036;2022-09-01T09:26:55;21.40;96.00
5059;DHT22;2548;52.050;11.036;2022-09-01T09:29:24;21.60;96.50
5059;DHT22;2548;52.050;11.036;2022-09-01T09:32:02;21.70;96.40
5059;DHT22;2548;52.050;11.036;2022-09-01T09:34:34;21.90;96.60
5059;DHT22;2548;52.050;11.036;2022-09-01T09:37:17;21.90;96.30
5059;DHT22;2548;52.050;11.036;2022-09-01T09:40:06;22.00;96.30
5059;DHT22;2548;52.050;11.036;2022-09-01T09:42:34;21.90;96.30
5059;DHT22;2548;52.050;11.036;2022-09-01T09:45:12;21.90;96.60
5059;DHT22;2548;52.050;11.036;2022-09-01T09:47:45;22.00;95.40
5059;DHT22;2548;52.050;11.036;2022-09-01T09:50:21;22.10;96.20
5059;DHT22;2548;52.050;11.036;2022-09-01T09:52:51;22.30;96.30
5059;DHT22;2548;52.050;11.036;2022-09-01T09:55:25;22.40;95.30
5059;DHT22;2548;52.050;11.036;2022-09-01T09:57:57;22.40;95.00
5059;DHT22;2548;52.050;11.036;2022-09-01T10:00:27;22.60;94.90
5059;DHT22;2548;52.050;11.036;2022-09-01T10:02:57;22.50;94.90
5059;DHT22;2548;52.050;11.036;2022-09-01T10:05:34;22.50;94.80
5059;DHT22;2548;52.050;11.036;2022-09-01T10:08:04;22.60;95.10
5059;DHT22;2548;52.050;11.036;2022-09-01T10:10:38;22.70;95.40
5059;DHT22;2548;52.050;11.036;2022-09-01T10:13:09;22.80;94.90
5059;DHT22;2548;52.050;11.036;2022-09-01T10:15:38;22.90;94.50
5059;DHT22;2548;52.050;11.036;2022-09-01T10:18:09;23.00;93.50
5059;DHT22;2548;52.050;11.036;2022-09-01T10:20:45;23.10;93.10
5059;DHT22;2548;52.050;11.036;2022-09-01T10:23:15;23.20;93.20
5059;DHT22;2548;52.050;11.036;2022-09-01T10:25:43;23.30;92.80
5059;DHT22;2548;52.050;11.036;2022-09-01T10:28:15;23.30;92.50
5059;DHT22;2548;52.050;11.036;2022-09-01T10:30:46;23.30;92.30
5059;DHT22;2548;52.050;11.036;2022-09-01T10:33:16;23.40;93.20
5059;DHT22;2548;52.050;11.036;2022-09-01T10:35:47;23.50;92.70
5059;DHT22;2548;52.050;11.036;2022-09-01T10:38:18;23.60;91.60
5059;DHT22;2548;52.050;11.036;2022-09-01T10:40:46;23.60;91.90
5059;DHT22;2548;52.050;11.036;2022-09-01T10:43:38;23.60;92.00
5059;DHT22;2548;52.050;11.036;2022-09-01T10:46:17;23.70;91.40
5059;DHT22;2548;52.050;11.036;2022-09-01T10:49:21;23.80;91.70
5059;DHT22;2548;52.050;11.036;2022-09-01T10:52:09;23.90;91.80
5059;DHT22;2548;52.050;11.036;2022-09-01T10:54:57;24.20;91.30
5059;DHT22;2548;52.050;11.036;2022-09-01T10:57:43;24.20;90.90
5059;DHT22;2548;52.050;11.036;2022-09-01T11:00:43;24.20;91.00
5059;DHT22;2548;52.050;11.036;2022-09-01T11:06:53;24.40;89.40
5059;DHT22;2548;52.050;11.036;2022-09-01T11:09:26;23.90;90.20
5059;DHT22;2548;52.050;11.036;2022-09-01T11:14:53;24.10;89.00
5059;DHT22;2548;52.050;11.036;2022-09-01T11:17:22;23.90;89.40
5059;DHT22;2548;52.050;11.036;2022-09-01T11:20:04;23.70;90.00
5059;DHT22;2548;52.050;11.036;2022-09-01T11:22:37;23.40;90.00
5059;DHT22;2548;52.050;11.036;2022-09-01T11:28:38;22.80;90.10
5059;DHT22;2548;52.050;11.036;2022-09-01T11:31:25;22.60;90.10
5059;DHT22;2548;52.050;11.036;2022-09-01T11:34:15;22.60;89.40
5059;DHT22;2548;52.050;11.036;2022-09-01T11:37:01;23.10;89.90
5059;DHT22;2548;52.050;11.036;2022-09-01T11:39:42;23.70;87.90
5059;DHT22;2548;52.050;11.036;2022-09-01T11:42:18;24.10;87.50
5059;DHT22;2548;52.050;11.036;2022-09-01T11:44:50;24.40;88.60
5059;DHT22;2548;52.050;11.036;2022-09-01T11:47:23;24.30;88.30
5059;DHT22;2548;52.050;11.036;2022-09-01T11:49:54;24.50;88.40
5059;DHT22;2548;52.050;11.036;2022-09-01T11:52:25;24.50;88.80
5059;DHT22;2548;52.050;11.036;2022-09-01T11:54:53;24.70;87.80
5059;DHT22;2548;52.050;11.036;2022-09-01T11:57:26;24.40;85.80
5059;DHT22;2548;52.050;11.036;2022-09-01T11:59:55;24.10;85.30
5059;DHT22;2548;52.050;11.036;2022-09-01T12:02:25;23.80;85.30
5059;DHT22;2548;52.050;11.036;2022-09-01T12:04:54;23.50;85.10
5059;DHT22;2548;52.050;11.036;2022-09-01T12:07:31;23.30;85.60
5059;DHT22;2548;52.050;11.036;2022-09-01T12:10:01;23.70;86.90
5059;DHT22;2548;52.050;11.036;2022-09-01T12:12:33;23.90;86.50
5059;DHT22;2548;52.050;11.036;2022-09-01T12:15:04;24.20;86.20
5059;DHT22;2548;52.050;11.036;2022-09-01T12:17:32;24.40;83.90
5059;DHT22;2548;52.050;11.036;2022-09-01T12:20:18;24.50;83.50
5059;DHT22;2548;52.050;11.036;2022-09-01T12:22:46;24.60;83.60
5059;DHT22;2548;52.050;11.036;2022-09-01T12:25:19;24.80;84.20
5059;DHT22;2548;52.050;11.036;2022-09-01T12:27:50;25.00;84.50
5059;DHT22;2548;52.050;11.036;2022-09-01T12:30:19;25.10;82.10
5059;DHT22;2548;52.050;11.036;2022-09-01T12:32:47;25.30;80.60
5059;DHT22;2548;52.050;11.036;2022-09-01T12:35:16;25.30;77.70
5059;DHT22;2548;52.050;11.036;2022-09-01T12:37:47;25.40;77.70
5059;DHT22;2548;52.050;11.036;2022-09-01T12:40:24;25.50;78.30
5059;DHT22;2548;52.050;11.036;2022-09-01T12:42:53;25.60;77.40
5059;DHT22;2548;52.050;11.036;2022-09-01T12:45:39;25.80;77.90
5059;DHT22;2548;52.050;11.036;2022-09-01T12:48:23;25.10;75.30
5059;DHT22;2548;52.050;11.036;2022-09-01T12:50:51;24.50;75.50
5059;DHT22;2548;52.050;11.036;2022-09-01T12:53:23;24.30;76.90
5059;DHT22;2548;52.050;11.036;2022-09-01T12:55:59;24.50;78.20
5059;DHT22;2548;52.050;11.036;2022-09-01T12:58:29;24.40;76.30
5059;DHT22;2548;52.050;11.036;2022-09-01T13:01:03;24.20;78.50
5059;DHT22;2548;52.050;11.036;2022-09-01T13:03:33;23.90;76.90
5059;DHT22;2548;52.050;11.036;2022-09-01T13:06:02;23.90;77.00
5059;DHT22;2548;52.050;11.036;2022-09-01T13:08:31;24.00;77.10
5059;DHT22;2548;52.050;11.036;2022-09-01T13:11:02;24.10;78.00
5059;DHT22;2548;52.050;11.036;2022-09-01T13:13:32;23.80;76.80
5059;DHT22;2548;52.050;11.036;2022-09-01T13:16:01;23.60;78.80
5059;DHT22;2548;52.050;11.036;2022-09-01T13:18:33;23.60;77.20
5059;DHT22;2548;52.050;11.036;2022-09-01T13:21:01;23.80;77.50
5059;DHT22;2548;52.050;11.036;2022-09-01T13:23:28;24.20;78.40
5059;DHT22;2548;52.050;11.036;2022-09-01T13:25:56;24.60;77.80
5059;DHT22;2548;52.050;11.036;2022-09-01T13:28:25;25.00;78.80
5059;DHT22;2548;52.050;11.036;2022-09-01T13:30:57;25.30;77.00
5059;DHT22;2548;52.050;11.036;2022-09-01T13:33:25;25.50;75.80
5059;DHT22;2548;52.050;11.036;2022-09-01T13:35:53;25.60;77.40
5059;DHT22;2548;52.050;11.036;2022-09-01T13:38:21;25.70;76.90
5059;DHT22;2548;52.050;11.036;2022-09-01T13:40:50;25.70;75.80
5059;DHT22;2548;52.050;11.036;2022-09-01T13:43:19;25.50;75.70
5059;DHT22;2548;52.050;11.036;2022-09-01T13:45:47;25.00;75.60
5059;DHT22;2548;52.050;11.036;2022-09-01T13:48:17;24.60;76.80
5059;DHT22;2548;52.050;11.036;2022-09-01T13:50:46;24.30;76.20
5059;DHT22;2548;52.050;11.036;2022-09-01T13:53:16;23.90;76.80
5059;DHT22;2548;52.050;11.036;2022-09-01T13:55:44;23.80;77.70
5059;DHT22;2548;52.050;11.036;2022-09-01T13:58:11;24.10;75.80
5059;DHT22;2548;52.050;11.036;2022-09-01T14:00:42;24.40;77.10
5059;DHT22;2548;52.050;11.036;2022-09-01T14:03:13;24.60;74.30
5059;DHT22;2548;52.050;11.036;2022-09-01T14:05:43;25.00;74.20
5059;DHT22;2548;52.050;11.036;2022-09-01T14:08:15;25.20;74.70
5059;DHT22;2548;52.050;11.036;2022-09-01T14:10:45;25.30;76.00
5059;DHT22;2548;52.050;11.036;2022-09-01T14:13:14;25.40;75.80
5059;DHT22;2548;52.050;11.036;2022-09-01T14:15:42;25.50;75.30
5059;DHT22;2548;52.050;11.036;2022-09-01T14:18:12;25.50;74.80
5059;DHT22;2548;52.050;11.036;2022-09-01T14:20:44;25.50;75.50
5059;DHT22;2548;52.050;11.036;2022-09-01T14:23:14;25.60;74.60
5059;DHT22;2548;52.050;11.036;2022-09-01T14:25:43;25.40;73.70
5059;DHT22;2548;52.050;11.036;2022-09-01T14:28:11;25.00;74.10
5059;DHT22;2548;52.050;11.036;2022-09-01T14:30:40;24.80;75.70
5059;DHT22;2548;52.050;11.036;2022-09-01T14:33:08;24.80;75.20
5059;DHT22;2548;52.050;11.036;2022-09-01T14:35:38;24.90;74.10
5059;DHT22;2548;52.050;11.036;2022-09-01T14:38:08;25.00;74.60
5059;DHT22;2548;52.050;11.036;2022-09-01T14:40:38;25.20;74.20
5059;DHT22;2548;52.050;11.036;2022-09-01T14:43:11;25.20;74.40
5059;DHT22;2548;52.050;11.036;2022-09-01T14:45:41;25.30;77.40
5059;DHT22;2548;52.050;11.036;2022-09-01T14:48:11;25.40;74.90
5059;DHT22;2548;52.050;11.036;2022-09-01T14:50:42;25.40;74.50
5059;DHT22;2548;52.050;11.036;2022-09-01T14:53:12;25.10;74.00
5059;DHT22;2548;52.050;11.036;2022-09-01T14:55:40;24.80;74.50
5059;DHT22;2548;52.050;11.036;2022-09-01T14:58:08;24.30;74.90
5059;DHT22;2548;52.050;11.036;2022-09-01T15:00:36;23.90;76.10
5059;DHT22;2548;52.050;11.036;2022-09-01T15:03:07;24.00;77.20
5059;DHT22;2548;52.050;11.036;2022-09-01T15:05:37;24.30;77.10
5059;DHT22;2548;52.050;11.036;2022-09-01T15:08:06;24.60;76.90
5059;DHT22;2548;52.050;11.036;2022-09-01T15:10:35;24.70;74.90
5059;DHT22;2548;52.050;11.036;2022-09-01T15:13:03;24.70;75.80
5059;DHT22;2548;52.050;11.036;2022-09-01T15:15:31;24.90;75.80
5059;DHT22;2548;52.050;11.036;2022-09-01T15:17:59;24.80;76.10
5059;DHT22;2548;52.050;11.036;2022-09-01T15:20:28;24.50;76.60
5059;DHT22;2548;52.050;11.036;2022-09-01T15:23:18;24.10;76.90
5059;DHT22;2548;52.050;11.036;2022-09-01T15:25:50;23.90;77.90
5059;DHT22;2548;52.050;11.036;2022-09-01T15:28:18;23.60;78.20
5059;DHT22;2548;52.050;11.036;2022-09-01T15:30:46;23.30;78.80
5059;DHT22;2548;52.050;11.036;2022-09-01T15:33:14;23.10;79.10
5059;DHT22;2548;52.050;11.036;2022-09-01T15:35:42;22.90;79.80
5059;DHT22;2548;52.050;11.036;2022-09-01T15:38:10;22.70;80.10
5059;DHT22;2548;52.050;11.036;2022-09-01T15:40:39;22.50;80.10
5059;DHT22;2548;52.050;11.036;2022-09-01T15:43:08;22.50;80.70
5059;DHT22;2548;52.050;11.036;2022-09-01T15:45:37;22.40;80.80
5059;DHT22;2548;52.050;11.036;2022-09-01T15:48:06;22.30;80.50
5059;DHT22;2548;52.050;11.036;2022-09-01T15:50:34;22.30;80.60
5059;DHT22;2548;52.050;11.036;2022-09-01T15:53:03;22.20;80.50
5059;DHT22;2548;52.050;11.036;2022-09-01T15:55:38;22.10;81.40
5059;DHT22;2548;52.050;11.036;2022-09-01T15:58:11;22.20;81.10
5059;DHT22;2548;52.050;11.036;2022-09-01T16:00:40;22.50;82.10
5059;DHT22;2548;52.050;11.036;2022-09-01T16:03:08;22.60;82.10
5059;DHT22;2548;52.050;11.036;2022-09-01T16:05:37;22.60;82.10
5059;DHT22;2548;52.050;11.036;2022-09-01T16:08:06;22.60;83.10
5059;DHT22;2548;52.050;11.036;2022-09-01T16:10:38;22.50;82.10
5059;DHT22;2548;52.050;11.036;2022-09-01T16:13:12;22.60;82.20
5059;DHT22;2548;52.050;11.036;2022-09-01T16:15:45;22.60;83.30
5059;DHT22;2548;52.050;11.036;2022-09-01T16:18:26;22.70;82.50
5059;DHT22;2548;52.050;11.036;2022-09-01T16:21:00;22.80;82.50
5059;DHT22;2548;52.050;11.036;2022-09-01T16:23:35;22.90;82.60